Time;durP1;ratioP1;P1;durP2;ratioP2;P2;SDS_P1;SDS_P2;PMS_P1;PMS_P2;Temp;Humidity;BMP_temperature;BMP_pressure;BME280_temperature;BME280_humidity;BME280_pressure;Samples;Min_cycle;Max_cycle;Signal;HPM_P1;HPM_P2
2022/08/13 00:00:59;;;;;;;2.60;1.35;;;24.90;35.70;;;;;;5009867;28;20675;-66
2022/08/13 00:03:28;;;;;;;1.85;1.30;;;24.90;35.10;;;;;;5009511;28;20049;-66
2022/08/13 00:05:54;;;;;;;2.15;1.30;;;24.90;35.10;;;;;;5009510;28;20512;-68
2022/08/13 00:08:23;;;;;;;3.40;1.40;;;24.80;35.30;;;;;;5011123;28;20030;-66
2022/08/13 00:10:50;;;;;;;3.63;1.40;;;24.80;35.50;;;;;;5013422;28;20026;-66
2022/08/13 00:13:16;;;;;;;2.17;1.27;;;24.80;35.50;;;;;;5012975;28;20029;-67
2022/08/13 00:15:43;;;;;;;1.35;1.23;;;24.70;35.70;;;;;;5013207;28;20037;-66
2022/08/13 00:18:14;;;;;;;5.95;4.03;;;24.60;35.70;;;;;;5012940;28;20026;-66
2022/08/13 00:20:44;;;;;;;2.65;1.80;;;24.60;35.70;;;;;;5011767;28;20026;-67
2022/08/13 00:23:13;;;;;;;1.55;1.45;;;24.60;35.80;;;;;;5013251;28;20034;-67
2022/08/13 00:25:40;;;;;;;3.13;1.45;;;24.60;35.90;;;;;;5012976;28;20068;-67
2022/08/13 00:28:06;;;;;;;3.17;1.35;;;24.50;36.00;;;;;;5012732;28;20655;-66
2022/08/13 00:30:33;;;;;;;1.33;1.23;;;24.40;36.10;;;;;;5012989;28;20025;-67
2022/08/13 00:33:12;;;;;;;1.63;1.30;;;24.40;36.20;;;;;;5012840;28;20034;-67
2022/08/13 00:35:41;;;;;;;1.70;1.30;;;24.30;36.20;;;;;;5009955;28;20025;-67
2022/08/13 00:38:13;;;;;;;4.47;1.05;;;24.30;36.20;;;;;;5012611;28;20239;-67
2022/08/13 00:40:46;;;;;;;;;;;24.30;36.30;;;;;;5012760;28;20500;-67
2022/08/13 00:43:12;;;;;;;2.17;1.40;;;24.30;36.50;;;;;;5011281;28;19922;-66
2022/08/13 00:45:38;;;;;;;2.25;1.40;;;24.20;36.60;;;;;;5012488;28;20052;-66
2022/08/13 00:50:50;;;;;;;2.35;1.13;;;24.10;36.80;;;;;;5012157;28;20036;-66
2022/08/13 00:53:18;;;;;;;1.45;1.30;;;24.10;36.90;;;;;;5012541;28;20033;-66
2022/08/13 00:55:48;;;;;;;1.73;1.20;;;24.10;37.00;;;;;;5012533;28;20041;-68
2022/08/13 00:58:16;;;;;;;2.65;1.42;;;24.10;36.90;;;;;;5012210;28;20109;-67
2022/08/13 01:00:46;;;;;;;1.30;1.20;;;24.00;37.00;;;;;;5011927;28;20481;-67
2022/08/13 01:03:12;;;;;;;2.13;1.40;;;24.00;37.20;;;;;;5012242;28;20124;-67
2022/08/13 01:05:40;;;;;;;1.33;1.20;;;23.90;37.30;;;;;;5012022;28;20029;-67
2022/08/13 01:08:06;;;;;;;1.10;1.00;;;23.90;37.20;;;;;;5012313;28;20048;-66
2022/08/13 01:10:34;;;;;;;1.38;1.10;;;23.90;37.20;;;;;;5011930;28;20076;-67
2022/08/13 01:13:00;;;;;;;1.70;1.02;;;23.90;37.30;;;;;;5012284;28;20109;-67
2022/08/13 01:15:27;;;;;;;1.35;1.20;;;23.80;37.30;;;;;;5011818;28;20101;-67
2022/08/13 01:17:54;;;;;;;2.22;1.00;;;23.80;37.50;;;;;;5012131;28;20477;-67
2022/08/13 01:20:21;;;;;;;3.75;1.20;;;23.80;37.50;;;;;;5010816;28;20034;-66
2022/08/13 01:22:52;;;;;;;1.10;1.00;;;23.80;37.50;;;;;;5009905;28;20026;-67
2022/08/13 01:25:21;;;;;;;1.88;1.10;;;23.80;37.50;;;;;;5011683;28;20026;-67
2022/08/13 01:27:51;;;;;;;2.63;1.50;;;23.80;37.60;;;;;;5011869;28;20026;-67
2022/08/13 01:30:19;;;;;;;4.05;1.20;;;23.70;37.70;;;;;;5010557;28;20399;-67
2022/08/13 01:32:46;;;;;;;1.30;1.20;;;23.70;37.90;;;;;;5011199;28;20033;-67
2022/08/13 01:35:12;;;;;;;3.45;1.50;;;23.70;37.90;;;;;;5011766;28;20559;-67
2022/08/13 01:37:39;;;;;;;2.17;1.30;;;23.60;38.10;;;;;;5011591;28;20033;-67
2022/08/13 01:40:06;;;;;;;2.08;1.27;;;23.60;38.30;;;;;;5011777;28;20055;-67
2022/08/13 01:42:41;;;;;;;1.88;1.13;;;23.50;38.40;;;;;;5011206;28;20057;-67
2022/08/13 01:45:08;;;;;;;1.33;1.20;;;23.50;38.50;;;;;;5009150;28;20030;-67
2022/08/13 01:50:31;;;;;;;1.50;1.40;;;23.50;38.40;;;;;;5011745;28;20113;-67
2022/08/13 01:53:01;;;;;;;1.38;1.23;;;23.40;38.40;;;;;;5011384;28;20030;-67
2022/08/13 01:55:38;;;;;;;1.87;1.30;;;23.40;38.50;;;;;;5009261;28;20568;-67
2022/08/13 01:58:09;;;;;;;1.20;1.10;;;23.30;38.50;;;;;;5011730;28;20655;-66
2022/08/13 02:00:39;;;;;;;2.37;1.90;;;23.30;38.60;;;;;;5011214;28;20540;-67
2022/08/13 02:03:10;;;;;;;3.85;1.80;;;23.30;39.30;;;;;;5010941;28;20338;-67
2022/08/13 02:05:38;;;;;;;3.30;1.70;;;23.30;38.70;;;;;;5024768;28;20026;-66
2022/08/13 02:08:05;;;;;;;2.58;1.25;;;23.30;38.70;;;;;;5011356;28;20448;-67
2022/08/13 02:10:31;;;;;;;2.20;1.10;;;23.30;38.70;;;;;;5009866;28;20483;-67
2022/08/13 02:12:57;;;;;;;3.03;1.30;;;23.20;38.70;;;;;;5003392;28;20097;-68
2022/08/13 02:15:23;;;;;;;1.25;0.93;;;23.20;38.80;;;;;;5010106;28;20014;-67
2022/08/13 02:17:48;;;;;;;2.13;1.10;;;23.20;38.90;;;;;;5011066;28;20029;-66
2022/08/13 02:20:17;;;;;;;1.15;1.00;;;23.20;38.90;;;;;;5010865;28;20799;-68
2022/08/13 02:22:46;;;;;;;2.05;1.20;;;23.20;38.80;;;;;;5011046;28;20721;-68
2022/08/13 02:25:16;;;;;;;1.00;0.90;;;23.20;38.90;;;;;;5010797;28;20022;-68
2022/08/13 02:27:43;;;;;;;1.95;1.05;;;23.10;38.90;;;;;;5010618;28;20022;-68
2022/08/13 02:30:11;;;;;;;3.63;1.10;;;23.10;38.90;;;;;;5010644;28;20088;-67
2022/08/13 02:32:38;;;;;;;2.25;1.00;;;23.10;39.00;;;;;;5010692;28;20026;-68
2022/08/13 02:35:04;;;;;;;0.98;0.90;;;23.10;39.10;;;;;;5010439;28;20032;-67
2022/08/13 02:37:32;;;;;;;1.73;1.17;;;23.00;39.10;;;;;;5010635;28;20029;-67
2022/08/13 02:39:59;;;;;;;1.85;1.13;;;23.00;39.30;;;;;;5010395;28;20088;-67
2022/08/13 02:42:32;;;;;;;1.50;1.30;;;23.00;39.30;;;;;;5010671;28;20033;-67
2022/08/13 02:44:58;;;;;;;1.17;0.90;;;22.90;39.40;;;;;;5007555;28;20033;-68
2022/08/13 02:47:25;;;;;;;3.28;1.10;;;22.90;39.30;;;;;;5021207;28;20392;-68
2022/08/13 02:49:51;;;;;;;4.85;2.40;;;22.90;39.30;;;;;;5009859;28;20024;-68
2022/08/13 02:52:19;;;;;;;1.40;1.30;;;22.90;39.40;;;;;;5010655;28;20021;-68
2022/08/13 02:54:48;;;;;;;2.85;1.27;;;22.90;39.50;;;;;;5010326;28;20073;-68
2022/08/13 02:57:14;;;;;;;2.63;1.17;;;22.90;39.60;;;;;;5010276;28;20574;-68
2022/08/13 02:59:43;;;;;;;1.20;1.05;;;22.90;39.50;;;;;;5010166;28;20026;-67
2022/08/13 03:02:11;;;;;;;1.38;1.00;;;22.90;39.50;;;;;;5010071;28;20550;-68
2022/08/13 03:04:42;;;;;;;1.88;1.13;;;22.80;39.50;;;;;;5010285;28;20124;-68
2022/08/13 03:07:08;;;;;;;1.27;1.10;;;22.80;39.50;;;;;;5010464;28;20101;-68
2022/08/13 03:09:34;;;;;;;2.65;1.20;;;22.80;39.60;;;;;;5008749;28;20141;-66
2022/08/13 03:12:03;;;;;;;1.25;0.95;;;22.80;39.70;;;;;;5010347;28;20045;-67
2022/08/13 03:14:34;;;;;;;2.47;1.80;;;22.80;39.70;;;;;;5009209;28;20124;-68
2022/08/13 03:16:59;;;;;;;3.88;2.50;;;22.80;39.70;;;;;;5010275;28;20083;-67
2022/08/13 03:19:25;;;;;;;2.45;1.38;;;22.70;39.80;;;;;;5010040;28;20112;-68
2022/08/13 03:21:51;;;;;;;3.00;1.40;;;22.70;40.50;;;;;;5010213;28;20030;-68
2022/08/13 03:24:18;;;;;;;2.30;1.00;;;22.70;39.80;;;;;;5009886;28;20022;-67
2022/08/13 03:26:44;;;;;;;1.15;0.95;;;22.70;40.00;;;;;;5003118;28;20535;-67
2022/08/13 03:29:10;;;;;;;2.78;1.98;;;22.70;39.90;;;;;;5008245;28;20025;-66
2022/08/13 03:31:36;;;;;;;3.42;1.50;;;22.70;39.90;;;;;;5009747;28;20517;-67
2022/08/13 03:34:04;;;;;;;1.60;1.23;;;22.70;39.90;;;;;;5009416;28;20388;-67
2022/08/13 03:36:31;;;;;;;1.00;0.82;;;22.70;39.80;;;;;;5010140;28;20044;-68
2022/08/13 03:38:57;;;;;;;1.42;1.02;;;22.70;39.70;;;;;;5009652;28;20125;-66
2022/08/13 03:41:23;;;;;;;1.33;1.10;;;22.70;39.80;;;;;;5008650;28;20026;-67
2022/08/13 03:43:49;;;;;;;2.85;1.10;;;22.70;39.90;;;;;;5012354;28;20048;-66
2022/08/13 03:46:21;;;;;;;1.98;1.20;;;22.70;39.90;;;;;;5013592;28;20021;-66
2022/08/13 03:48:49;;;;;;;2.38;1.10;;;22.70;40.00;;;;;;5014026;28;20026;-66
2022/08/13 03:51:16;;;;;;;1.30;1.08;;;22.60;40.10;;;;;;5013305;28;20044;-68
2022/08/13 03:53:43;;;;;;;1.08;1.00;;;22.60;40.20;;;;;;5013488;28;20030;-68
2022/08/13 03:56:09;;;;;;;1.52;1.10;;;22.60;40.30;;;;;;5013126;28;20076;-67
2022/08/13 03:58:37;;;;;;;1.92;1.10;;;22.50;40.30;;;;;;5013783;28;20028;-66
2022/08/13 04:01:04;;;;;;;1.13;1.00;;;22.50;40.30;;;;;;5013125;28;20034;-67
2022/08/13 04:03:37;;;;;;;2.72;1.17;;;22.50;40.30;;;;;;5013494;28;20493;-67
2022/08/13 04:06:22;;;;;;;1.92;1.20;;;22.50;40.50;;;;;;5013431;28;20022;-67
2022/08/13 04:08:49;;;;;;;1.45;1.20;;;22.50;40.50;;;;;;5013322;28;20404;-67
2022/08/13 04:11:17;;;;;;;1.50;0.90;;;22.40;40.60;;;;;;5013214;28;20497;-67
2022/08/13 04:13:43;;;;;;;1.58;1.10;;;22.40;40.60;;;;;;5011787;28;20034;-67
2022/08/13 04:16:12;;;;;;;2.15;1.13;;;22.40;40.70;;;;;;5013306;28;20033;-68
2022/08/13 04:18:40;;;;;;;1.27;1.05;;;22.30;40.80;;;;;;5012900;28;20034;-66
2022/08/13 04:21:08;;;;;;;1.55;1.30;;;22.30;40.90;;;;;;4993620;28;20113;-67
2022/08/13 04:23:39;;;;;;;1.10;1.00;;;22.30;40.90;;;;;;5011964;28;20448;-68
2022/08/13 04:26:23;;;;;;;2.45;1.00;;;22.30;40.90;;;;;;5013177;28;20480;-67
2022/08/13 04:28:50;;;;;;;1.17;0.90;;;22.30;40.90;;;;;;4993824;28;20033;-67
2022/08/13 04:31:16;;;;;;;1.10;1.00;;;22.30;40.90;;;;;;4993863;28;20034;-67
2022/08/13 04:33:42;;;;;;;2.78;1.00;;;22.30;41.00;;;;;;5012509;28;20038;-67
2022/08/13 04:36:08;;;;;;;2.00;0.90;;;22.30;41.00;;;;;;5011496;28;20033;-67
2022/08/13 04:38:35;;;;;;;3.40;1.30;;;22.30;41.00;;;;;;5013064;28;20030;-67
2022/08/13 04:41:01;;;;;;;1.30;1.00;;;22.20;41.10;;;;;;5012459;28;20038;-67
2022/08/13 04:43:27;;;;;;;3.92;1.20;;;22.30;41.20;;;;;;5012693;28;20057;-67
2022/08/13 04:45:58;;;;;;;1.35;0.90;;;22.30;41.20;;;;;;5012531;28;20061;-66
2022/08/13 04:48:26;;;;;;;2.10;1.20;;;22.30;41.20;;;;;;5012649;28;20025;-67
2022/08/13 04:50:52;;;;;;;1.42;1.00;;;22.30;41.20;;;;;;5003118;28;20076;-67
2022/08/13 04:53:34;;;;;;;1.98;1.25;;;22.20;41.30;;;;;;5004572;28;20055;-65
2022/08/13 04:56:01;;;;;;;3.03;1.42;;;22.20;41.60;;;;;;5011616;28;20057;-67
2022/08/13 04:58:33;;;;;;;1.30;0.90;;;22.20;41.60;;;;;;5012296;28;20025;-67
2022/08/13 05:00:59;;;;;;;2.88;1.25;;;22.20;41.60;;;;;;5012495;28;20037;-66
2022/08/13 05:03:24;;;;;;;1.25;1.02;;;22.20;41.70;;;;;;5012065;28;20024;-67
2022/08/13 05:05:51;;;;;;;1.25;1.13;;;22.20;41.70;;;;;;5011985;28;20026;-66
2022/08/13 05:08:18;;;;;;;1.30;1.20;;;22.20;41.70;;;;;;5012195;28;20029;-67
2022/08/13 05:10:46;;;;;;;1.70;1.27;;;22.20;41.60;;;;;;5012568;28;20034;-65
2022/08/13 05:13:39;;;;;;;2.17;1.02;;;22.20;41.80;;;;;;5011744;28;20021;-65
2022/08/13 05:16:07;;;;;;;1.63;1.20;;;22.20;41.80;;;;;;5004014;28;20041;-67
2022/08/13 05:18:35;;;;;;;1.67;1.00;;;22.20;41.90;;;;;;5011825;28;20073;-67
2022/08/13 05:21:03;;;;;;;3.83;1.17;;;22.20;41.90;;;;;;5011928;28;20536;-66
2022/08/13 05:23:32;;;;;;;1.50;1.10;;;22.20;42.10;;;;;;5012021;28;20022;-66
2022/08/13 05:25:59;;;;;;;2.38;1.20;;;22.20;42.10;;;;;;5012078;28;20022;-67
2022/08/13 05:28:25;;;;;;;2.85;1.10;;;22.20;42.20;;;;;;5010625;28;20026;-66
2022/08/13 05:30:51;;;;;;;1.40;1.20;;;22.30;42.30;;;;;;5011866;28;20362;-66
2022/08/13 05:33:20;;;;;;;2.10;1.20;;;22.30;42.30;;;;;;5011676;28;20056;-65
2022/08/13 05:35:50;;;;;;;1.88;1.00;;;22.50;42.20;;;;;;5011409;28;20022;-66
2022/08/13 05:38:22;;;;;;;1.70;1.10;;;23.60;40.80;;;;;;5011380;28;20034;-66
2022/08/13 05:40:48;;;;;;;;;;;24.60;39.10;;;;;;5011835;28;20068;-66
2022/08/13 05:43:16;;;;;;;2.35;1.20;;;25.60;37.90;;;;;;5011602;28;20000;-66
2022/08/13 05:45:46;;;;;;;3.13;1.10;;;26.30;36.50;;;;;;5004214;28;20026;-67
2022/08/13 05:48:12;;;;;;;1.13;1.02;;;27.00;35.60;;;;;;5011297;28;20029;-66
2022/08/13 05:50:38;;;;;;;1.58;1.10;;;27.60;34.80;;;;;;5011213;28;20030;-66
2022/08/13 05:53:09;;;;;;;2.33;1.05;;;28.10;33.80;;;;;;5026499;28;20121;-67
2022/08/13 05:55:36;;;;;;;0.95;0.95;;;28.30;33.30;;;;;;5010423;28;20473;-68
2022/08/13 05:58:03;;;;;;;1.83;1.13;;;28.50;33.10;;;;;;5011085;28;20033;-66
2022/08/13 06:03:25;;;;;;;2.45;1.00;;;29.10;32.40;;;;;;5009863;28;20033;-67
2022/08/13 06:05:53;;;;;;;1.35;1.02;;;29.50;32.00;;;;;;5010935;28;20021;-66
2022/08/13 06:08:24;;;;;;;2.20;1.00;;;29.50;31.70;;;;;;5011288;28;20033;-66
2022/08/13 06:10:50;;;;;;;1.03;0.80;;;29.70;31.80;;;;;;5011227;28;20026;-67
2022/08/13 06:13:16;;;;;;;2.75;1.00;;;30.50;31.20;;;;;;5010825;28;20030;-66
2022/08/13 06:15:43;;;;;;;1.65;1.10;;;30.30;30.70;;;;;;5007649;28;20105;-67
2022/08/13 06:18:11;;;;;;;1.80;0.95;;;30.30;30.90;;;;;;5004663;28;20040;-67
2022/08/13 06:20:40;;;;;;;1.10;1.00;;;30.60;30.70;;;;;;5007525;28;20028;-67
2022/08/13 06:23:11;;;;;;;2.53;1.10;;;31.00;30.40;;;;;;5003313;28;20014;-66
2022/08/13 06:25:37;;;;;;;;;;;31.10;30.00;;;;;;5005415;28;20081;-66
2022/08/13 06:28:04;;;;;;;1.77;1.10;;;31.20;30.20;;;;;;5009205;28;20330;-66
2022/08/13 06:30:31;;;;;;;1.05;0.90;;;31.20;30.00;;;;;;5008722;28;20044;-66
2022/08/13 06:33:01;;;;;;;2.25;1.00;;;31.70;30.10;;;;;;5005416;28;20032;-66
2022/08/13 06:35:27;;;;;;;2.40;1.02;;;32.10;29.80;;;;;;5008734;28;20057;-67
2022/08/13 06:37:53;;;;;;;2.22;1.05;;;32.50;29.60;;;;;;5008294;28;20017;-67
2022/08/13 06:40:23;;;;;;;1.92;1.00;;;32.70;29.40;;;;;;5007742;28;20029;-66
2022/08/13 06:42:51;;;;;;;1.60;1.00;;;32.80;29.80;;;;;;5003481;28;20030;-67
2022/08/13 06:45:20;;;;;;;1.10;1.00;;;32.50;29.20;;;;;;5000737;28;20030;-68
2022/08/13 06:47:48;;;;;;;1.83;1.00;;;32.40;29.40;;;;;;5008366;28;20109;-69
2022/08/13 06:50:13;;;;;;;0.90;0.90;;;32.60;29.30;;;;;;5008441;28;20097;-67
2022/08/13 06:52:39;;;;;;;1.30;1.00;;;33.10;29.30;;;;;;5003004;28;20069;-66
2022/08/13 06:55:07;;;;;;;1.48;1.13;;;33.40;29.10;;;;;;5008426;28;20497;-65
2022/08/13 06:57:36;;;;;;;1.00;0.80;;;33.70;29.00;;;;;;5008221;28;20026;-67
2022/08/13 07:00:04;;;;;;;1.38;1.05;;;33.80;28.80;;;;;;5008506;28;20030;-67
2022/08/13 07:02:32;;;;;;;0.90;0.90;;;33.90;28.80;;;;;;5012228;28;20447;-67
2022/08/13 07:04:58;;;;;;;2.65;1.10;;;33.80;28.80;;;;;;5012398;28;20076;-66
2022/08/13 07:07:25;;;;;;;4.05;1.35;;;33.70;29.00;;;;;;5008916;28;20536;-66
2022/08/13 07:09:51;;;;;;;1.27;1.00;;;33.80;28.90;;;;;;5011396;28;20021;-67
2022/08/13 07:12:17;;;;;;;2.13;1.10;;;33.90;28.90;;;;;;5008203;28;20177;-67
2022/08/13 07:14:44;;;;;;;1.45;1.20;;;33.90;28.90;;;;;;5007750;28;20483;-67
2022/08/13 07:17:11;;;;;;;1.40;1.30;;;33.90;28.70;;;;;;5007935;28;20113;-65
2022/08/13 07:19:37;;;;;;;2.35;1.20;;;33.30;28.90;;;;;;5008543;28;20495;-66
2022/08/13 07:22:04;;;;;;;2.88;1.30;;;33.50;29.20;;;;;;5008933;28;20396;-66
2022/08/13 07:24:30;;;;;;;3.55;1.55;;;34.10;29.00;;;;;;5007339;28;20026;-67
2022/08/13 07:27:04;;;;;;;1.85;1.33;;;34.40;28.80;;;;;;5010933;28;20497;-67
2022/08/13 07:29:32;;;;;;;1.50;1.30;;;34.50;28.70;;;;;;5008954;28;20527;-67
2022/08/13 07:32:01;;;;;;;1.33;1.23;;;34.60;28.70;;;;;;5012031;28;20488;-67
2022/08/13 07:34:28;;;;;;;2.35;1.50;;;34.80;28.50;;;;;;5009348;28;20508;-66
2022/08/13 07:36:56;;;;;;;3.42;1.30;;;34.70;28.50;;;;;;5006195;28;20029;-67
2022/08/13 07:39:22;;;;;;;1.65;1.20;;;34.60;28.90;;;;;;5008797;28;20028;-67
2022/08/13 07:41:48;;;;;;;2.58;1.50;;;35.00;28.70;;;;;;5009065;28;20057;-66
2022/08/13 07:44:21;;;;;;;1.52;1.30;;;35.00;28.40;;;;;;5008944;28;20053;-67
2022/08/13 07:46:51;;;;;;;2.50;1.40;;;34.80;28.60;;;;;;5009745;28;20068;-67
2022/08/13 07:49:18;;;;;;;2.55;1.20;;;35.00;28.90;;;;;;5007439;28;20101;-67
2022/08/13 07:51:46;;;;;;;2.40;1.15;;;35.00;28.80;;;;;;5008184;28;20034;-67
2022/08/13 07:54:12;;;;;;;1.55;1.30;;;35.10;28.90;;;;;;5008370;28;20076;-67
2022/08/13 07:56:39;;;;;;;2.70;1.20;;;35.20;28.80;;;;;;5009857;28;20080;-67
2022/08/13 07:59:04;;;;;;;2.10;1.50;;;35.20;29.00;;;;;;5009173;28;20040;-68
2022/08/13 08:01:33;;;;;;;2.50;1.30;;;34.70;29.10;;;;;;5010980;28;20030;-68
2022/08/13 08:04:01;;;;;;;1.40;1.30;;;34.30;29.50;;;;;;5008672;28;20097;-68
2022/08/13 08:06:29;;;;;;;4.13;1.33;;;33.80;30.00;;;;;;5011524;28;20389;-67
2022/08/13 08:08:55;;;;;;;2.55;1.20;;;33.30;30.20;;;;;;5010585;28;20025;-67
2022/08/13 08:14:06;;;;;;;2.47;1.23;;;32.50;31.00;;;;;;5007312;28;20045;-67
2022/08/13 08:16:34;;;;;;;1.35;1.25;;;32.20;31.30;;;;;;5007979;28;20030;-68
2022/08/13 08:19:00;;;;;;;1.20;1.10;;;31.80;31.60;;;;;;5007570;28;20040;-68
2022/08/13 08:21:27;;;;;;;3.45;1.42;;;31.30;31.60;;;;;;5004284;28;20021;-66
2022/08/13 08:24:01;;;;;;;1.50;1.10;;;30.80;32.00;;;;;;5006448;28;20030;-67
2022/08/13 08:26:32;;;;;;;2.80;1.42;;;30.50;32.30;;;;;;5008301;28;20021;-67
2022/08/13 08:28:59;;;;;;;1.80;1.30;;;30.10;32.20;;;;;;5007203;28;20010;-68
2022/08/13 08:31:26;;;;;;;1.67;1.30;;;29.90;32.70;;;;;;5013763;28;20026;-67
2022/08/13 08:33:55;;;;;;;1.35;1.20;;;29.70;32.90;;;;;;5010508;28;20038;-67
2022/08/13 08:36:22;;;;;;;1.85;1.17;;;29.60;32.90;;;;;;5011788;28;20686;-68
2022/08/13 08:44:23;;;;;;;2.72;1.38;;;29.90;33.40;;;;;;5014371;28;20100;-66
2022/08/13 08:46:56;;;;;;;3.17;1.33;;;30.00;33.50;;;;;;5012529;28;20028;-67
2022/08/13 08:49:24;;;;;;;2.45;1.40;;;29.90;33.40;;;;;;5011395;28;20049;-66
2022/08/13 08:51:51;;;;;;;3.15;1.30;;;30.00;33.50;;;;;;5014774;28;20029;-67
2022/08/13 08:54:22;;;;;;;1.25;1.00;;;29.80;33.40;;;;;;5012789;28;20034;-67
2022/08/13 08:56:49;;;;;;;2.08;1.33;;;29.70;33.60;;;;;;5016303;28;20033;-66
2022/08/13 08:59:15;;;;;;;3.65;1.27;;;29.80;33.70;;;;;;5011367;28;20029;-65
2022/08/13 09:01:44;;;;;;;1.80;1.20;;;29.90;33.30;;;;;;5010654;28;20034;-66
2022/08/13 09:04:12;;;;;;;1.73;1.48;;;29.60;33.20;;;;;;5011776;28;20507;-66
2022/08/13 09:06:38;;;;;;;1.23;1.05;;;29.60;33.80;;;;;;5014881;28;20026;-67
2022/08/13 09:09:06;;;;;;;1.50;1.35;;;29.80;33.80;;;;;;5015543;28;20029;-65
2022/08/13 09:11:34;;;;;;;2.10;1.05;;;29.90;33.70;;;;;;5011697;28;20022;-66
2022/08/13 09:14:03;;;;;;;1.63;1.13;;;30.20;33.70;;;;;;5016533;28;20045;-66
2022/08/13 09:16:29;;;;;;;1.80;1.02;;;30.30;33.40;;;;;;5013071;28;20369;-68
2022/08/13 09:18:56;;;;;;;1.20;1.10;;;30.40;33.40;;;;;;5016882;28;20029;-67
2022/08/13 09:21:22;;;;;;;3.42;1.15;;;30.50;33.10;;;;;;5014613;28;20058;-66
2022/08/13 09:23:47;;;;;;;2.30;1.40;;;30.60;32.90;;;;;;5011732;28;20056;-66
2022/08/13 09:26:17;;;;;;;1.33;1.10;;;30.40;32.60;;;;;;5010341;28;20030;-68
2022/08/13 09:28:43;;;;;;;2.67;1.15;;;30.10;32.70;;;;;;5011069;28;20088;-68
2022/08/13 09:31:10;;;;;;;1.92;1.10;;;30.20;32.90;;;;;;5012045;28;20509;-67
2022/08/13 09:33:38;;;;;;;3.28;1.33;;;30.20;33.00;;;;;;5013515;28;20030;-66
2022/08/13 09:36:09;;;;;;;5.05;1.50;;;30.30;33.00;;;;;;5006137;28;20018;-66
2022/08/13 09:38:36;;;;;;;1.23;1.13;;;30.40;32.70;;;;;;5011222;28;20105;-68
2022/08/13 09:41:19;;;;;;;2.47;0.90;;;30.50;32.80;;;;;;5009377;28;20817;-68
2022/08/13 09:43:45;;;;;;;1.35;1.10;;;30.70;32.40;;;;;;5012674;28;20505;-66
2022/08/13 09:46:12;;;;;;;1.52;1.10;;;30.70;32.40;;;;;;5019721;28;20025;-66
2022/08/13 09:48:38;;;;;;;1.10;1.00;;;30.80;32.10;;;;;;5016276;28;20029;-68
2022/08/13 09:51:05;;;;;;;1.50;1.10;;;30.90;32.30;;;;;;5010376;28;20099;-68
2022/08/13 09:53:31;;;;;;;2.10;1.00;;;31.00;32.10;;;;;;5011269;28;20041;-68
2022/08/13 09:55:56;;;;;;;2.92;1.20;;;31.00;32.00;;;;;;5015099;28;20026;-68
2022/08/13 09:58:23;;;;;;;1.63;1.00;;;31.20;31.60;;;;;;5014754;28;20381;-67
2022/08/13 10:00:50;;;;;;;1.42;1.05;;;31.30;31.50;;;;;;5011212;28;20022;-68
2022/08/13 10:03:17;;;;;;;1.45;1.25;;;31.20;31.30;;;;;;5011139;28;20040;-67
2022/08/13 10:05:47;;;;;;;1.55;1.10;;;31.20;31.10;;;;;;5011687;28;20028;-67
2022/08/13 10:08:17;;;;;;;1.70;1.20;;;31.10;31.00;;;;;;5010774;28;20088;-67
2022/08/13 10:10:47;;;;;;;3.05;1.15;;;31.00;31.20;;;;;;5017652;28;20026;-67
2022/08/13 10:13:13;;;;;;;4.50;1.27;;;31.10;31.30;;;;;;5014392;28;20373;-67
2022/08/13 10:15:39;;;;;;;1.40;1.08;;;31.20;31.20;;;;;;5009480;28;20029;-69
2022/08/13 10:18:05;;;;;;;1.25;1.00;;;31.20;30.60;;;;;;5009593;28;20092;-67
2022/08/13 10:20:33;;;;;;;2.50;0.90;;;31.30;30.50;;;;;;5009881;28;20115;-68
2022/08/13 10:23:01;;;;;;;1.15;0.85;;;31.50;30.30;;;;;;5008256;28;20017;-67
2022/08/13 10:25:28;;;;;;;0.80;0.80;;;31.60;30.10;;;;;;5009507;28;20017;-65
2022/08/13 10:27:55;;;;;;;2.05;1.17;;;31.60;30.00;;;;;;5010023;28;20057;-67
2022/08/13 10:30:26;;;;;;;1.27;1.00;;;31.60;29.90;;;;;;5008748;28;20058;-67
2022/08/13 10:32:55;;;;;;;1.02;0.90;;;31.80;30.00;;;;;;5012950;28;20057;-67
2022/08/13 10:35:27;;;;;;;1.42;0.80;;;31.90;29.90;;;;;;5010383;28;20547;-67
2022/08/13 10:37:56;;;;;;;2.42;1.10;;;32.00;29.40;;;;;;5011253;28;20038;-67
2022/08/13 10:40:22;;;;;;;1.08;1.00;;;32.00;29.30;;;;;;5010484;28;20034;-67
2022/08/13 10:42:48;;;;;;;3.35;0.98;;;31.90;29.20;;;;;;5012914;28;20034;-67
2022/08/13 10:45:14;;;;;;;3.92;1.00;;;31.90;29.40;;;;;;5008717;28;20038;-67
2022/08/13 10:47:45;;;;;;;1.25;1.10;;;32.00;29.50;;;;;;5010430;28;20046;-67
2022/08/13 10:50:11;;;;;;;1.00;0.80;;;32.10;29.20;;;;;;5009327;28;20022;-67
2022/08/13 10:52:37;;;;;;;0.93;0.90;;;32.20;28.60;;;;;;5010207;28;20654;-68
2022/08/13 10:55:03;;;;;;;0.80;0.80;;;32.30;28.80;;;;;;5011574;28;20025;-68
2022/08/13 10:57:28;;;;;;;1.40;1.10;;;32.30;28.60;;;;;;5009337;28;20032;-66
2022/08/13 10:59:54;;;;;;;1.35;0.90;;;32.30;28.80;;;;;;5010112;28;20049;-67
2022/08/13 11:02:19;;;;;;;2.05;1.00;;;32.30;28.90;;;;;;5004408;28;20390;-67
2022/08/13 11:04:45;;;;;;;0.90;0.82;;;32.30;28.90;;;;;;5008338;28;20098;-67
2022/08/13 11:07:12;;;;;;;1.58;0.90;;;32.40;29.00;;;;;;5006505;28;20022;-66
2022/08/13 11:09:38;;;;;;;1.50;0.80;;;32.60;29.00;;;;;;5007182;28;20362;-67
2022/08/13 11:12:05;;;;;;;1.25;0.90;;;32.80;29.00;;;;;;5005337;28;20727;-68
2022/08/13 11:14:32;;;;;;;0.80;0.80;;;32.80;28.60;;;;;;5012137;28;20036;-66
2022/08/13 11:16:58;;;;;;;2.50;0.90;;;32.90;28.70;;;;;;5005043;28;20018;-67
2022/08/13 11:19:29;;;;;;;1.48;1.05;;;32.90;28.40;;;;;;5007973;28;20101;-68
2022/08/13 11:21:55;;;;;;;2.45;1.20;;;32.70;28.50;;;;;;5007427;28;20435;-68
2022/08/13 11:24:21;;;;;;;1.58;1.00;;;32.50;28.70;;;;;;5008979;28;20076;-67
2022/08/13 11:26:47;;;;;;;0.88;0.88;;;32.60;28.80;;;;;;5007695;28;20049;-66
2022/08/13 11:29:17;;;;;;;1.00;0.90;;;32.60;28.80;;;;;;5005121;28;20493;-67
2022/08/13 11:31:42;;;;;;;2.25;1.08;;;32.40;28.70;;;;;;5007176;28;20496;-67
2022/08/13 11:34:08;;;;;;;1.17;1.00;;;32.30;28.70;;;;;;5009303;28;20033;-66
2022/08/13 11:36:34;;;;;;;0.82;0.80;;;32.30;28.90;;;;;;5009542;28;20040;-67
2022/08/13 11:39:00;;;;;;;2.38;0.98;;;32.30;28.80;;;;;;5008950;28;20029;-67
2022/08/13 11:41:26;;;;;;;1.10;1.00;;;32.30;28.70;;;;;;5008323;28;20026;-67
2022/08/13 11:43:51;;;;;;;1.40;1.02;;;32.20;28.70;;;;;;5009102;28;20026;-68
2022/08/13 11:46:21;;;;;;;1.50;0.93;;;32.10;28.70;;;;;;5005427;28;20025;-67
2022/08/13 11:48:48;;;;;;;1.00;0.90;;;32.40;28.80;;;;;;5008060;28;20026;-68
2022/08/13 11:51:13;;;;;;;2.13;0.98;;;32.60;28.60;;;;;;5004890;28;20030;-67
2022/08/13 11:53:39;;;;;;;1.20;0.90;;;32.70;28.30;;;;;;5007607;28;20026;-68
2022/08/13 11:56:05;;;;;;;1.70;0.90;;;32.70;28.00;;;;;;5008081;28;20513;-67
2022/08/13 11:58:33;;;;;;;2.55;1.10;;;32.90;28.30;;;;;;5022571;28;20034;-67
2022/08/13 12:00:59;;;;;;;2.15;1.20;;;32.90;27.80;;;;;;5005190;28;20484;-67
2022/08/13 12:03:25;;;;;;;0.90;0.90;;;32.80;27.80;;;;;;5004102;28;20034;-67
2022/08/13 12:05:51;;;;;;;2.10;0.90;;;32.80;27.90;;;;;;5009480;28;20022;-66
2022/08/13 12:08:18;;;;;;;2.30;0.90;;;33.00;27.90;;;;;;5010219;28;20076;-65
2022/08/13 12:10:45;;;;;;;2.17;1.00;;;33.30;27.70;;;;;;5010461;28;20042;-67
2022/08/13 12:13:10;;;;;;;0.85;0.80;;;33.10;27.30;;;;;;5010919;28;20489;-68
2022/08/13 12:15:36;;;;;;;1.38;0.90;;;33.10;27.30;;;;;;5008068;28;20034;-68
2022/08/13 12:18:02;;;;;;;0.70;0.70;;;33.00;27.40;;;;;;5010192;28;20029;-67
2022/08/13 12:20:28;;;;;;;1.92;0.80;;;33.20;27.40;;;;;;5009418;28;20408;-68
2022/08/13 12:22:56;;;;;;;2.60;0.90;;;33.20;27.40;;;;;;5007001;28;20026;-67
2022/08/13 12:25:23;;;;;;;2.35;0.90;;;33.10;27.20;;;;;;5008953;28;20030;-67
2022/08/13 12:27:48;;;;;;;0.73;0.73;;;33.10;27.10;;;;;;5008073;28;20049;-68
2022/08/13 12:30:14;;;;;;;1.30;0.80;;;33.10;27.20;;;;;;5009689;28;20116;-68
2022/08/13 12:32:40;;;;;;;1.35;1.00;;;33.00;26.70;;;;;;5012864;28;20077;-68
2022/08/13 12:35:06;;;;;;;1.02;0.90;;;32.80;26.90;;;;;;5011199;28;20829;-68
2022/08/13 12:37:32;;;;;;;3.38;2.50;;;32.90;27.00;;;;;;5011827;28;20456;-68
2022/08/13 12:39:58;;;;;;;2.08;1.10;;;32.90;27.20;;;;;;5014452;28;20017;-68
2022/08/13 12:42:26;;;;;;;0.80;0.80;;;33.20;27.10;;;;;;5011894;28;20033;-67
2022/08/13 12:44:52;;;;;;;1.05;0.80;;;33.40;27.00;;;;;;5011014;28;20049;-67
2022/08/13 12:47:18;;;;;;;1.15;0.90;;;33.50;26.80;;;;;;5012046;28;20578;-66
2022/08/13 12:49:43;;;;;;;1.55;1.00;;;33.70;26.70;;;;;;5012284;28;20025;-68
2022/08/13 12:52:09;;;;;;;1.58;0.70;;;33.90;26.50;;;;;;5011395;28;20033;-67
2022/08/13 12:54:34;;;;;;;0.70;0.70;;;34.00;26.60;;;;;;5010864;28;20030;-68
2022/08/13 12:57:00;;;;;;;0.90;0.70;;;34.10;26.50;;;;;;5007292;28;20025;-67
2022/08/13 12:59:26;;;;;;;0.50;0.50;;;34.40;26.60;;;;;;5011235;28;20029;-68
2022/08/13 13:01:53;;;;;;;2.72;2.22;;;34.70;26.40;;;;;;5010998;28;20022;-67
2022/08/13 13:04:23;;;;;;;2.47;1.17;;;34.70;26.10;;;;;;5010541;28;20029;-68
2022/08/13 13:06:50;;;;;;;0.90;0.90;;;34.70;26.20;;;;;;5013216;28;20018;-68